Time;durP1;ratioP1;P1;durP2;ratioP2;P2;SDS_P1;SDS_P2;PMS_P1;PMS_P2;Temp;Humidity;BMP_temperature;BMP_pressure;BME280_temperature;BME280_humidity;BME280_pressure;Samples;Min_cycle;Max_cycle;Signal;HPM_P1;HPM_P2
2023/08/03 00:00:45;;;;;;;;;;;;;;;22.36;100.00;99085.06;5133544;27;845;-57
2023/08/03 00:03:11;;;;;;;;;;;;;;;22.37;100.00;99089.41;5133373;27;862;-57
2023/08/03 00:05:38;;;;;;;;;;;;;;;22.38;100.00;99085.31;5133455;27;854;-57
2023/08/03 00:08:04;;;;;;;;;;;;;;;22.35;100.00;99091.19;5133559;27;1913;-57
2023/08/03 00:10:32;;;;;;;;;;;;;;;22.33;100.00;99088.09;5133519;27;896;-57
2023/08/03 00:12:59;;;;;;;;;;;;;;;22.33;100.00;99083.22;5133197;27;814;-57
2023/08/03 00:15:25;;;;;;;;;;;;;;;22.33;100.00;99071.97;5133350;27;916;-57
2023/08/03 00:17:52;;;;;;;;;;;;;;;22.29;100.00;99079.88;5133170;27;845;-57
2023/08/03 00:20:18;;;;;;;;;;;;;;;22.26;100.00;99086.50;5133307;27;833;-57
2023/08/03 00:22:46;;;;;;;;;;;;;;;22.20;100.00;99086.44;5133136;27;828;-57
2023/08/03 00:25:13;;;;;;;;;;;;;;;22.17;100.00;99086.69;5133477;27;881;-57
2023/08/03 00:27:40;;;;;;;;;;;;;;;22.14;100.00;99087.66;5133087;27;885;-57
2023/08/03 00:30:06;;;;;;;;;;;;;;;22.12;100.00;99093.03;5133043;27;1878;-57
2023/08/03 00:32:34;;;;;;;;;;;;;;;22.09;100.00;99080.72;5132887;27;823;-57
2023/08/03 00:35:00;;;;;;;;;;;;;;;22.08;100.00;99087.59;5133269;27;810;-57
2023/08/03 00:37:28;;;;;;;;;;;;;;;22.03;100.00;99080.66;5132965;27;802;-57
2023/08/03 00:39:55;;;;;;;;;;;;;;;21.97;100.00;99087.53;5132926;27;849;-57
2023/08/03 00:42:22;;;;;;;;;;;;;;;21.98;100.00;99095.47;5132941;27;858;-57
2023/08/03 00:44:49;;;;;;;;;;;;;;;21.98;100.00;99084.22;5132802;27;960;-57
2023/08/03 00:47:15;;;;;;;;;;;;;;;22.02;100.00;99086.81;5132813;27;963;-57
2023/08/03 00:49:42;;;;;;;;;;;;;;;22.01;100.00;99090.88;5132529;28;1949;-57
2023/08/03 00:52:09;;;;;;;;;;;;;;;22.02;100.00;99092.44;5132870;28;785;-57
2023/08/03 00:54:36;;;;;;;;;;;;;;;22.01;100.00;99088.84;5132780;28;895;-57
2023/08/03 00:57:04;;;;;;;;;;;;;;;21.99;100.00;99087.78;5132896;28;806;-57
2023/08/03 00:59:31;;;;;;;;;;;;;;;22.02;100.00;99100.88;5132899;28;829;-57
2023/08/03 01:01:58;;;;;;;;;;;;;;;22.08;100.00;99100.91;5132608;28;828;-57
2023/08/03 01:04:25;;;;;;;;;;;;;;;22.08;100.00;99096.06;5132658;28;819;-57
2023/08/03 01:06:53;;;;;;;;;;;;;;;22.09;100.00;99086.34;5132957;28;977;-57
2023/08/03 01:09:20;;;;;;;;;;;;;;;22.16;100.00;99087.94;5132491;28;1913;-57
2023/08/03 01:11:47;;;;;;;;;;;;;;;22.20;100.00;99092.06;5132631;28;896;-57
2023/08/03 01:14:13;;;;;;;;;;;;;;;22.20;100.00;99086.44;5132551;28;845;-57
2023/08/03 01:16:40;;;;;;;;;;;;;;;22.18;100.00;99082.56;5132601;28;813;-57
2023/08/03 01:19:07;;;;;;;;;;;;;;;22.18;100.00;99079.75;5132629;28;869;-57
2023/08/03 01:21:34;;;;;;;;;;;;;;;22.21;100.00;99079.53;5132453;28;832;-57
2023/08/03 01:24:02;;;;;;;;;;;;;;;22.18;100.00;99085.41;5132598;28;860;-57
2023/08/03 01:26:29;;;;;;;;;;;;;;;22.15;100.00;99087.16;5132503;28;785;-57
2023/08/03 01:28:55;;;;;;;;;;;;;;;22.12;100.00;99085.34;5132611;28;1941;-57
2023/08/03 01:31:22;;;;;;;;;;;;;;;22.12;100.00;99098.66;5132683;28;857;-57
2023/08/03 01:33:49;;;;;;;;;;;;;;;22.10;100.00;99093.50;5132480;28;877;-57
2023/08/03 01:36:16;;;;;;;;;;;;;;;22.06;100.00;99095.78;5132491;28;861;-57
2023/08/03 01:38:43;;;;;;;;;;;;;;;21.96;100.00;99088.81;5132370;28;851;-57
2023/08/03 01:41:10;;;;;;;;;;;;;;;21.91;100.00;99095.13;5132347;28;818;-57
2023/08/03 01:43:37;;;;;;;;;;;;;;;21.84;100.00;99092.78;5132226;28;876;-57
2023/08/03 01:46:05;;;;;;;;;;;;;;;21.79;100.00;99092.22;5132376;28;892;-57
2023/08/03 01:48:32;;;;;;;;;;;;;;;21.74;100.00;99095.78;5132435;28;1901;-57
2023/08/03 01:50:59;;;;;;;;;;;;;;;21.69;100.00;99099.28;5132199;28;1378;-57
2023/08/03 01:53:26;;;;;;;;;;;;;;;21.63;100.00;99090.03;5132363;28;810;-57
2023/08/03 01:55:53;;;;;;;;;;;;;;;21.58;100.00;99096.38;5133297;27;847;-57
2023/08/03 01:58:20;;;;;;;;;;;;;;;21.53;100.00;99099.88;5135949;27;837;-57
2023/08/03 02:00:47;;;;;;;;;;;;;;;21.49;100.00;99102.16;5135852;27;1024;-57
2023/08/03 02:03:13;;;;;;;;;;;;;;;21.45;100.00;99101.59;5117487;27;1167;-57
2023/08/03 02:05:39;;;;;;;;;;;;;;;21.41;100.00;99102.59;5135832;27;829;-57
2023/08/03 02:08:06;;;;;;;;;;;;;;;21.39;100.00;99109.94;5135686;27;1972;-57
2023/08/03 02:10:32;;;;;;;;;;;;;;;21.36;100.00;99111.69;5135698;27;845;-57
2023/08/03 02:12:59;;;;;;;;;;;;;;;21.32;100.00;99113.94;5135765;27;806;-57
2023/08/03 02:15:26;;;;;;;;;;;;;;;21.33;100.00;99103.47;5135553;27;859;-57
2023/08/03 02:17:52;;;;;;;;;;;;;;;21.36;100.00;99106.09;5135413;27;791;-57
2023/08/03 02:20:19;;;;;;;;;;;;;;;21.39;100.00;99109.94;5117060;27;1250;-57
2023/08/03 02:22:47;;;;;;;;;;;;;;;21.41;100.00;99113.03;5135499;27;810;-58
2023/08/03 02:25:12;;;;;;;;;;;;;;;21.48;100.00;99111.84;5135426;27;896;-57
2023/08/03 02:27:39;;;;;;;;;;;;;;;21.52;100.00;99115.22;5135366;27;861;-57
2023/08/03 02:30:06;;;;;;;;;;;;;;;21.54;100.00;99113.44;5135322;27;1898;-58
2023/08/03 02:32:33;;;;;;;;;;;;;;;21.57;100.00;99112.47;5135346;27;1021;-57
2023/08/03 02:34:59;;;;;;;;;;;;;;;21.60;100.00;99119.16;5135347;27;897;-57
2023/08/03 02:37:26;;;;;;;;;;;;;;;21.61;100.00;99115.84;5135327;27;837;-57
2023/08/03 02:39:54;;;;;;;;;;;;;;;21.63;100.00;99125.81;5135214;27;806;-57
2023/08/03 02:42:21;;;;;;;;;;;;;;;21.59;100.00;99126.81;5135130;27;977;-57
2023/08/03 02:44:47;;;;;;;;;;;;;;;21.56;100.00;99124.22;5135182;27;876;-57
2023/08/03 02:47:14;;;;;;;;;;;;;;;21.55;100.00;99129.06;5135062;27;920;-58
2023/08/03 02:49:40;;;;;;;;;;;;;;;21.51;100.00;99134.13;5135156;27;1890;-57
2023/08/03 02:52:07;;;;;;;;;;;;;;;21.46;100.00;99137.63;5135111;27;842;-57
2023/08/03 02:54:34;;;;;;;;;;;;;;;21.43;100.00;99129.44;5135039;27;833;-57
2023/08/03 02:57:00;;;;;;;;;;;;;;;21.37;100.00;99141.34;5135004;27;1192;-57
2023/08/03 02:59:27;;;;;;;;;;;;;;;21.23;100.00;99139.41;5134990;27;808;-57
2023/08/03 03:01:54;;;;;;;;;;;;;;;21.09;100.00;99143.03;5135123;27;1211;-57
2023/08/03 03:04:20;;;;;;;;;;;;;;;20.96;100.00;99141.34;5134700;27;1190;-57
2023/08/03 03:06:47;;;;;;;;;;;;;;;20.85;100.00;99146.06;5134590;27;820;-58
2023/08/03 03:09:14;;;;;;;;;;;;;;;20.77;100.00;99145.69;5134609;27;1913;-58
2023/08/03 03:11:41;;;;;;;;;;;;;;;20.72;100.00;99144.34;5134485;27;881;-57
2023/08/03 03:14:08;;;;;;;;;;;;;;;20.66;100.00;99151.91;5134446;27;805;-57
2023/08/03 03:16:35;;;;;;;;;;;;;;;20.56;100.00;99150.44;5134467;27;873;-57
2023/08/03 03:19:01;;;;;;;;;;;;;;;20.51;100.00;99151.13;5134274;27;828;-57
2023/08/03 03:21:28;;;;;;;;;;;;;;;20.53;100.00;99155.00;5134326;27;805;-58
2023/08/03 03:23:55;;;;;;;;;;;;;;;20.63;100.00;99164.09;5134286;27;853;-57
2023/08/03 03:26:21;;;;;;;;;;;;;;;20.74;100.00;99155.84;5134143;27;881;-57
2023/08/03 03:28:48;;;;;;;;;;;;;;;20.86;100.00;99161.63;5134088;27;1992;-57
2023/08/03 03:31:14;;;;;;;;;;;;;;;21.00;100.00;99161.56;5134372;27;798;-57
2023/08/03 03:33:41;;;;;;;;;;;;;;;21.13;100.00;99163.28;5134152;27;822;-57
2023/08/03 03:39:10;;;;;;;;;;;;;;;21.30;100.00;99155.84;5132836;27;699;-57
2023/08/03 03:41:36;;;;;;;;;;;;;;;21.38;100.00;99156.19;5133941;27;899;-57
2023/08/03 03:44:03;;;;;;;;;;;;;;;21.45;100.00;99164.22;5133893;27;793;-57
2023/08/03 03:46:30;;;;;;;;;;;;;;;21.52;100.00;99163.78;5134207;27;814;-57
2023/08/03 03:48:57;;;;;;;;;;;;;;;21.61;100.00;99158.03;5133988;27;1007;-57
2023/08/03 03:51:24;;;;;;;;;;;;;;;21.74;100.00;99157.66;5133311;27;1424;-57
2023/08/03 03:53:50;;;;;;;;;;;;;;;21.86;100.00;99157.75;5133746;27;798;-57
2023/08/03 03:56:16;;;;;;;;;;;;;;;21.93;100.00;99163.69;5133845;27;887;-57
2023/08/03 03:58:43;;;;;;;;;;;;;;;22.05;100.00;99161.78;5133827;27;1949;-57
2023/08/03 04:01:09;;;;;;;;;;;;;;;22.15;100.00;99168.00;5133573;27;863;-57
2023/08/03 04:03:36;;;;;;;;;;;;;;;22.21;100.00;99161.16;5133580;27;951;-57
2023/08/03 04:06:03;;;;;;;;;;;;;;;22.26;100.00;99170.19;5115103;27;872;-57
2023/08/03 04:08:29;;;;;;;;;;;;;;;22.34;100.00;99171.25;5133411;27;836;-57
2023/08/03 04:10:56;;;;;;;;;;;;;;;22.43;100.00;99179.53;5133518;27;877;-57
2023/08/03 04:13:23;;;;;;;;;;;;;;;22.49;100.00;99183.16;5114954;27;850;-57
2023/08/03 04:15:50;;;;;;;;;;;;;;;22.57;100.00;99177.84;5133367;27;913;-57
2023/08/03 04:18:17;;;;;;;;;;;;;;;22.61;100.00;99181.97;5114479;27;1885;-57
2023/08/03 04:20:44;;;;;;;;;;;;;;;22.66;100.00;99185.31;5133304;27;816;-56
2023/08/03 04:23:10;;;;;;;;;;;;;;;22.73;100.00;99187.69;5114703;27;1306;-57
2023/08/03 04:25:37;;;;;;;;;;;;;;;22.82;100.00;99191.06;5133256;27;857;-56
2023/08/03 04:28:03;;;;;;;;;;;;;;;22.95;100.00;99185.00;5133354;27;860;-56
2023/08/03 04:30:30;;;;;;;;;;;;;;;23.11;100.00;99186.44;5133152;27;880;-57
2023/08/03 04:32:56;;;;;;;;;;;;;;;23.30;100.00;99192.41;5133132;27;825;-56
2023/08/03 04:35:23;;;;;;;;;;;;;;;23.50;100.00;99193.53;5133233;27;872;-57
2023/08/03 04:37:48;;;;;;;;;;;;;;;23.68;100.00;99198.69;5133538;27;846;-56
2023/08/03 04:40:15;;;;;;;;;;;;;;;23.82;100.00;99192.09;5132976;27;1885;-56
2023/08/03 04:42:42;;;;;;;;;;;;;;;23.90;100.00;99188.78;5133076;27;1278;-56
2023/08/03 04:45:09;;;;;;;;;;;;;;;23.96;100.00;99189.56;5132866;27;1187;-56
2023/08/03 04:47:36;;;;;;;;;;;;;;;24.07;100.00;99197.28;5132989;27;908;-56
2023/08/03 04:50:02;;;;;;;;;;;;;;;24.25;100.00;99191.91;5132634;27;1274;-56
2023/08/03 04:52:29;;;;;;;;;;;;;;;24.48;100.00;99185.53;5132770;28;897;-56
2023/08/03 04:54:55;;;;;;;;;;;;;;;24.76;100.00;99191.94;5132757;28;821;-56
2023/08/03 04:57:22;;;;;;;;;;;;;;;24.98;100.00;99199.59;5132550;28;882;-56
2023/08/03 04:59:49;;;;;;;;;;;;;;;25.22;100.00;99190.59;5132846;28;1973;-56
2023/08/03 05:02:15;;;;;;;;;;;;;;;25.52;97.86;99201.28;5132745;28;802;-56
2023/08/03 05:04:42;;;;;;;;;;;;;;;25.69;95.11;99198.38;5132938;28;825;-56
2023/08/03 05:07:09;;;;;;;;;;;;;;;25.60;95.91;99199.41;5132606;28;1029;-56
2023/08/03 05:09:37;;;;;;;;;;;;;;;25.65;95.49;99209.19;5132572;28;998;-56
2023/08/03 05:12:04;;;;;;;;;;;;;;;25.72;95.18;99213.53;5132686;28;821;-56
2023/08/03 05:14:30;;;;;;;;;;;;;;;25.80;94.71;99212.47;5132550;28;802;-56
2023/08/03 05:16:56;;;;;;;;;;;;;;;25.91;94.56;99214.47;5132599;28;837;-56
2023/08/03 05:19:22;;;;;;;;;;;;;;;25.86;94.53;99210.38;5132538;28;1886;-56
2023/08/03 05:21:50;;;;;;;;;;;;;;;25.84;94.79;99209.34;5132580;28;881;-56
2023/08/03 05:24:16;;;;;;;;;;;;;;;25.95;94.40;99212.16;5132428;28;858;-56
2023/08/03 05:26:43;;;;;;;;;;;;;;;26.14;92.76;99217.94;5132393;28;912;-56
2023/08/03 05:29:09;;;;;;;;;;;;;;;26.26;91.74;99213.72;5132588;28;843;-56
2023/08/03 05:31:36;;;;;;;;;;;;;;;26.37;90.99;99215.72;5134652;27;968;-56
2023/08/03 05:34:03;;;;;;;;;;;;;;;26.53;90.01;99222.56;5136484;27;873;-56
2023/08/03 05:36:30;;;;;;;;;;;;;;;26.72;88.28;99216.25;5136214;27;886;-56
2023/08/03 05:38:56;;;;;;;;;;;;;;;26.86;87.58;99210.19;5136524;27;1941;-56
2023/08/03 05:41:25;;;;;;;;;;;;;;;27.07;86.13;99213.31;5136238;27;853;-55
2023/08/03 05:43:52;;;;;;;;;;;;;;;27.37;85.08;99223.06;5136519;27;791;-56
2023/08/03 05:46:19;;;;;;;;;;;;;;;27.63;83.09;99220.44;5136166;27;865;-56
2023/08/03 05:48:52;;;;;;;;;;;;;;;27.80;80.34;99214.56;5117809;27;963;-56
2023/08/03 05:51:28;;;;;;;;;;;;;;;28.00;77.93;99223.84;5136295;27;1423;-56
2023/08/03 05:53:56;;;;;;;;;;;;;;;28.23;75.68;99227.13;5136261;27;802;-56
2023/08/03 05:56:23;;;;;;;;;;;;;;;29.01;69.74;99227.91;5135931;27;838;-56
2023/08/03 05:58:49;;;;;;;;;;;;;;;29.96;63.29;99235.13;5135891;27;1910;-56
2023/08/03 06:01:20;;;;;;;;;;;;;;;31.01;58.35;99229.53;5136003;27;806;-56
2023/08/03 06:03:47;;;;;;;;;;;;;;;31.92;53.17;99229.31;5135925;27;849;-56
2023/08/03 06:06:18;;;;;;;;;;;;;;;32.28;50.82;99231.31;5135681;27;806;-56
2023/08/03 06:08:50;;;;;;;;;;;;;;;32.79;47.61;99226.06;5135772;27;885;-56
2023/08/03 06:11:20;;;;;;;;;;;;;;;33.36;44.02;99226.38;5135701;27;865;-56
2023/08/03 06:13:48;;;;;;;;;;;;;;;34.10;42.13;99223.66;5135716;27;849;-56
2023/08/03 06:16:15;;;;;;;;;;;;;;;34.75;40.66;99232.22;5135631;27;861;-56
2023/08/03 06:18:49;;;;;;;;;;;;;;;35.12;39.02;99226.72;5135507;27;1921;-56
2023/08/03 06:21:17;;;;;;;;;;;;;;;35.54;37.73;99231.66;5135575;27;805;-56
2023/08/03 06:23:50;;;;;;;;;;;;;;;36.12;36.38;99227.69;5135446;27;949;-56
2023/08/03 06:26:18;;;;;;;;;;;;;;;36.69;34.96;99232.25;5135436;27;790;-56
2023/08/03 06:28:45;;;;;;;;;;;;;;;37.22;33.73;99224.06;5136001;27;735;-55
2023/08/03 06:31:14;;;;;;;;;;;;;;;37.29;33.35;99231.03;5135502;27;826;-56
2023/08/03 06:33:42;;;;;;;;;;;;;;;37.39;32.60;99228.94;5135364;27;843;-56
2023/08/03 06:36:13;;;;;;;;;;;;;;;37.68;31.50;99228.94;5135485;27;818;-56
2023/08/03 06:38:40;;;;;;;;;;;;;;;37.83;32.02;99219.22;5135199;27;1886;-55
2023/08/03 06:41:07;;;;;;;;;;;;;;;38.27;31.07;99223.09;5135251;27;864;-56
2023/08/03 06:43:35;;;;;;;;;;;;;;;38.33;29.70;99227.16;5135123;27;921;-55
2023/08/03 06:46:01;;;;;;;;;;;;;;;38.34;28.88;99230.81;5135058;27;786;-55
2023/08/03 06:48:28;;;;;;;;;;;;;;;38.36;29.11;99225.94;5135279;27;913;-55
2023/08/03 06:50:56;;;;;;;;;;;;;;;38.91;28.02;99225.41;5134820;27;1496;-56
2023/08/03 06:53:22;;;;;;;;;;;;;;;39.25;27.60;99227.03;5134882;27;873;-56
2023/08/03 06:55:49;;;;;;;;;;;;;;;39.26;27.03;99222.75;5134839;27;798;-56
2023/08/03 06:58:17;;;;;;;;;;;;;;;39.06;27.01;99230.81;5134715;27;1914;-56
2023/08/03 07:00:44;;;;;;;;;;;;;;;39.17;27.04;99227.22;5134842;27;884;-56
2023/08/03 07:03:11;;;;;;;;;;;;;;;39.59;26.87;99234.38;5134846;27;936;-56
2023/08/03 07:05:39;;;;;;;;;;;;;;;39.67;26.35;99234.16;5134661;27;869;-55
2023/08/03 07:08:04;;;;;;;;;;;;;;;39.49;26.79;99227.91;5127503;27;782;-56
2023/08/03 07:10:32;;;;;;;;;;;;;;;39.50;26.84;99226.56;5134659;27;787;-56
2023/08/03 07:12:59;;;;;;;;;;;;;;;39.34;26.47;99223.28;5134573;27;840;-56
2023/08/03 07:15:26;;;;;;;;;;;;;;;39.31;26.78;99229.56;5116134;27;842;-56
2023/08/03 07:17:53;;;;;;;;;;;;;;;39.91;26.39;99234.28;5121716;27;1456;-56
2023/08/03 07:20:20;;;;;;;;;;;;;;;40.51;25.53;99233.75;5127979;27;1973;-57
2023/08/03 07:22:48;;;;;;;;;;;;;;;40.06;25.07;99235.94;5133765;27;928;-57
2023/08/03 07:25:14;;;;;;;;;;;;;;;40.14;24.97;99236.47;5116087;27;901;-57
2023/08/03 07:27:41;;;;;;;;;;;;;;;40.53;24.92;99230.25;5113318;28;862;-57
2023/08/03 07:30:08;;;;;;;;;;;;;;;40.91;24.26;99245.63;5113706;28;846;-57
2023/08/03 07:32:35;;;;;;;;;;;;;;;40.58;24.85;99232.75;5113772;28;826;-58
2023/08/03 07:35:02;;;;;;;;;;;;;;;40.49;25.03;99238.69;5113805;28;823;-57
2023/08/03 07:37:29;;;;;;;;;;;;;;;40.67;24.94;99239.81;5113382;28;925;-57
2023/08/03 07:39:57;;;;;;;;;;;;;;;40.81;24.69;99237.06;5113358;28;1949;-57
2023/08/03 07:42:24;;;;;;;;;;;;;;;40.56;25.13;99235.50;5113484;28;818;-57
2023/08/03 07:44:57;;;;;;;;;;;;;;;40.32;25.44;99234.00;5113346;28;841;-57
2023/08/03 07:47:23;;;;;;;;;;;;;;;40.28;25.38;99233.72;5113203;28;1169;-57
2023/08/03 07:49:53;;;;;;;;;;;;;;;40.64;24.97;99235.28;5113127;28;1260;-57
2023/08/03 07:52:19;;;;;;;;;;;;;;;40.56;25.30;99234.75;5113160;28;813;-57
2023/08/03 07:54:46;;;;;;;;;;;;;;;40.42;25.58;99234.66;5112396;28;826;-58
2023/08/03 07:57:15;;;;;;;;;;;;;;;40.92;24.86;99236.28;5113062;28;862;-58
2023/08/03 07:59:49;;;;;;;;;;;;;;;41.29;24.28;99238.50;5112915;28;1967;-58
2023/08/03 08:02:15;;;;;;;;;;;;;;;41.10;24.44;99235.88;5113021;28;867;-57
2023/08/03 08:04:42;;;;;;;;;;;;;;;40.89;24.38;99237.56;5112935;28;810;-57
2023/08/03 08:07:09;;;;;;;;;;;;;;;41.08;24.28;99233.63;5112944;28;859;-57
2023/08/03 08:09:35;;;;;;;;;;;;;;;41.58;23.90;99232.25;5113003;28;869;-57
2023/08/03 08:12:04;;;;;;;;;;;;;;;42.05;23.81;99221.81;5113015;28;881;-57
2023/08/03 08:14:31;;;;;;;;;;;;;;;42.21;22.57;99226.38;5094593;28;1358;-58
2023/08/03 08:16:58;;;;;;;;;;;;;;;41.56;23.67;99228.44;5112805;28;900;-58
2023/08/03 08:19:24;;;;;;;;;;;;;;;40.88;24.36;99232.38;5112757;28;1945;-58
2023/08/03 08:21:52;;;;;;;;;;;;;;;40.78;24.45;99229.66;5112717;28;869;-58
2023/08/03 08:24:19;;;;;;;;;;;;;;;40.64;24.16;99228.72;5112579;28;822;-58
2023/08/03 08:26:46;;;;;;;;;;;;;;;40.59;24.58;99222.69;5094573;28;857;-58
2023/08/03 08:29:12;;;;;;;;;;;;;;;40.69;24.56;99222.53;5112655;28;874;-57
2023/08/03 08:31:39;;;;;;;;;;;;;;;40.57;24.49;99218.91;5094246;28;1187;-58
2023/08/03 08:34:05;;;;;;;;;;;;;;;40.62;24.65;99218.53;5112652;28;858;-57
2023/08/03 08:36:32;;;;;;;;;;;;;;;40.58;24.74;99214.63;5112543;28;845;-57
2023/08/03 08:38:59;;;;;;;;;;;;;;;40.53;24.43;99209.97;5112572;28;2013;-57
2023/08/03 08:41:24;;;;;;;;;;;;;;;40.13;24.78;99215.44;5112654;28;930;-57
2023/08/03 08:43:51;;;;;;;;;;;;;;;40.24;25.32;99216.84;5112569;28;1215;-57
2023/08/03 08:46:18;;;;;;;;;;;;;;;40.49;24.76;99212.63;5094441;28;1437;-57
2023/08/03 08:48:45;;;;;;;;;;;;;;;40.07;25.24;99217.19;5112714;28;1356;-57
2023/08/03 08:51:13;;;;;;;;;;;;;;;40.39;25.35;99213.50;5112146;28;1364;-57
2023/08/03 08:53:40;;;;;;;;;;;;;;;40.41;24.96;99213.63;5112449;28;1160;-57
2023/08/03 08:56:07;;;;;;;;;;;;;;;40.44;24.87;99216.63;5112412;28;1213;-58
2023/08/03 08:58:34;;;;;;;;;;;;;;;40.41;24.62;99212.84;5094170;28;1967;-57
2023/08/03 09:01:04;;;;;;;;;;;;;;;40.36;25.28;99211.84;5112417;28;966;-56
2023/08/03 09:03:47;;;;;;;;;;;;;;;40.29;25.13;99212.13;5112051;28;908;-56
2023/08/03 09:06:14;;;;;;;;;;;;;;;40.36;25.47;99211.09;5115956;28;774;-57
2023/08/03 09:08:55;;;;;;;;;;;;;;;40.21;25.66;99209.44;5116299;28;873;-57
2023/08/03 09:11:40;;;;;;;;;;;;;;;40.11;25.92;99206.63;5116352;28;795;-57
2023/08/03 09:14:14;;;;;;;;;;;;;;;40.20;25.51;99210.78;5116286;28;939;-57
2023/08/03 09:48:05;;;;;;;;;;;;;;;38.14;27.98;99202.03;6070888;22;1492;-69
2023/08/03 09:50:34;;;;;;;;;;;;;;;38.50;27.52;99197.34;4995686;28;877;-69
2023/08/03 09:53:03;;;;;;;;;;;;;;;38.63;27.00;99201.09;4995728;28;870;-65
2023/08/03 09:55:32;;;;;;;;;;;;;;;38.64;26.82;99199.72;4995650;28;791;-65
2023/08/03 09:58:00;;;;;;;;;;;;;;;38.62;26.60;99206.09;5010589;28;970;-65
2023/08/03 10:00:28;;;;;;;;;;;;;;;38.43;26.80;99206.94;4995487;28;1902;-65
2023/08/03 10:03:02;;;;;;;;;;;;;;;38.50;26.66;99203.13;4995460;28;858;-64
2023/08/03 10:05:29;;;;;;;;;;;;;;;38.41;26.49;99198.13;4995718;28;854;-68
2023/08/03 10:07:59;;;;;;;;;;;;;;;38.44;26.84;99194.00;4995361;28;858;-66
2023/08/03 10:10:28;;;;;;;;;;;;;;;38.72;26.34;99203.91;4995520;28;1349;-67
2023/08/03 10:12:56;;;;;;;;;;;;;;;38.52;26.08;99194.63;4995425;28;898;-65
2023/08/03 10:15:23;;;;;;;;;;;;;;;38.44;26.60;99185.34;4995343;28;771;-68
2023/08/03 10:17:51;;;;;;;;;;;;;;;38.74;26.46;99195.41;4994298;28;902;-66
2023/08/03 10:20:18;;;;;;;;;;;;;;;39.00;25.59;99187.81;4995111;28;1947;-66
2023/08/03 10:23:05;;;;;;;;;;;;;;;38.70;25.77;99185.69;4995131;28;864;-67
2023/08/03 10:25:32;;;;;;;;;;;;;;;38.47;26.44;99189.88;4994966;28;1210;-69
2023/08/03 10:28:15;;;;;;;;;;;;;;;38.40;26.48;99188.69;4995084;28;803;-66
2023/08/03 10:31:03;;;;;;;;;;;;;;;38.54;26.40;99186.09;4995087;28;862;-66
2023/08/03 10:33:45;;;;;;;;;;;;;;;38.76;26.31;99189.00;4995007;28;819;-67
2023/08/03 10:36:33;;;;;;;;;;;;;;;38.79;26.56;99179.09;4994870;28;859;-74
2023/08/03 10:39:04;;;;;;;;;;;;;;;38.54;26.50;99185.34;4982084;28;1961;-68
2023/08/03 10:41:37;;;;;;;;;;;;;;;38.42;26.58;99181.56;4994829;28;954;-70
2023/08/03 10:44:10;;;;;;;;;;;;;;;38.46;26.74;99187.63;4994884;28;795;-67
2023/08/03 10:46:40;;;;;;;;;;;;;;;38.60;26.37;99186.53;4994786;28;863;-66
2023/08/03 10:49:19;;;;;;;;;;;;;;;38.74;26.42;99183.09;5011792;28;1221;-66
2023/08/03 10:51:46;;;;;;;;;;;;;;;39.16;26.06;99179.50;5034229;28;814;-66
2023/08/03 10:54:14;;;;;;;;;;;;;;;39.29;25.87;99177.41;5034147;28;874;-66
2023/08/03 10:57:00;;;;;;;;;;;;;;;39.65;25.21;99182.00;5033929;28;834;-69
2023/08/03 10:59:27;;;;;;;;;;;;;;;39.25;25.67;99177.16;5034040;28;1910;-67
2023/08/03 11:01:54;;;;;;;;;;;;;;;39.20;25.84;99176.88;5034017;28;836;-67
2023/08/03 11:04:24;;;;;;;;;;;;;;;39.54;25.81;99179.78;5033823;28;795;-68
2023/08/03 11:06:51;;;;;;;;;;;;;;;39.53;25.74;99176.16;5033712;28;834;-68
2023/08/03 11:09:18;;;;;;;;;;;;;;;39.49;25.80;99178.78;5033585;28;837;-67
2023/08/03 11:11:49;;;;;;;;;;;;;;;39.71;25.47;99170.81;5033644;28;814;-67
2023/08/03 11:14:16;;;;;;;;;;;;;;;39.45;25.53;99174.88;5033537;28;866;-66
2023/08/03 11:16:44;;;;;;;;;;;;;;;39.67;25.70;99170.56;5033392;28;795;-68
2023/08/03 11:19:13;;;;;;;;;;;;;;;39.85;25.32;99167.34;5033405;28;1953;-68
2023/08/03 11:21:43;;;;;;;;;;;;;;;39.85;25.56;99171.00;5033463;28;803;-68
2023/08/03 11:24:10;;;;;;;;;;;;;;;39.99;25.05;99163.22;5033321;28;803;-66
2023/08/03 11:26:35;;;;;;;;;;;;;;;40.25;25.09;99166.28;5033235;28;862;-67
2023/08/03 11:29:03;;;;;;;;;;;;;;;40.29;24.74;99160.03;5032085;28;1168;-68
2023/08/03 11:31:30;;;;;;;;;;;;;;;40.29;24.64;99169.44;5015386;28;1221;-69
2023/08/03 11:33:56;;;;;;;;;;;;;;;40.40;24.74;99157.09;5033269;28;807;-68
2023/08/03 11:36:24;;;;;;;;;;;;;;;40.47;24.64;99149.53;5033072;28;826;-65
2023/08/03 11:38:51;;;;;;;;;;;;;;;40.38;24.85;99162.03;5033085;28;1951;-67
2023/08/03 11:41:26;;;;;;;;;;;;;;;40.56;24.51;99154.44;5032948;28;875;-65
2023/08/03 11:43:52;;;;;;;;;;;;;;;41.04;24.57;99149.34;5033022;28;1181;-66
2023/08/03 11:46:35;;;;;;;;;;;;;;;41.12;24.00;99149.81;5032818;28;866;-66
2023/08/03 11:49:03;;;;;;;;;;;;;;;41.30;24.32;99144.34;5032628;28;1190;-66
2023/08/03 11:51:35;;;;;;;;;;;;;;;41.24;23.86;99135.31;5032842;28;842;-67
2023/08/03 11:54:02;;;;;;;;;;;;;;;40.93;24.56;99150.16;5032757;28;912;-66
2023/08/03 11:56:28;;;;;;;;;;;;;;;41.20;24.47;99149.56;5033043;28;790;-66
2023/08/03 11:59:01;;;;;;;;;;;;;;;41.56;23.33;99139.31;5032582;28;1975;-67
2023/08/03 12:01:28;;;;;;;;;;;;;;;41.94;23.12;99128.38;5032518;28;826;-65
2023/08/03 12:04:05;;;;;;;;;;;;;;;42.25;22.54;99138.78;5032562;28;906;-64
2023/08/03 12:06:48;;;;;;;;;;;;;;;42.54;22.38;99137.41;5032513;28;909;-65
2023/08/03 12:09:21;;;;;;;;;;;;;;;43.00;22.13;99132.53;5032430;28;1890;-63
2023/08/03 12:11:48;;;;;;;;;;;;;;;43.21;21.68;99137.16;5032427;28;783;-64
2023/08/03 12:14:16;;;;;;;;;;;;;;;43.27;21.74;99134.59;5032433;28;821;-64
2023/08/03 12:16:43;;;;;;;;;;;;;;;43.21;21.84;99125.53;5032221;28;869;-65
2023/08/03 12:19:11;;;;;;;;;;;;;;;42.82;22.27;99124.34;5032344;28;822;-66
2023/08/03 12:21:38;;;;;;;;;;;;;;;42.71;22.11;99127.38;5032495;28;850;-65
2023/08/03 12:24:06;;;;;;;;;;;;;;;43.42;21.41;99128.09;5032156;28;892;-65
2023/08/03 12:26:33;;;;;;;;;;;;;;;43.41;21.49;99112.03;5032233;28;850;-66
2023/08/03 12:29:01;;;;;;;;;;;;;;;43.52;21.64;99119.09;5032212;28;1886;-65
2023/08/03 12:31:29;;;;;;;;;;;;;;;43.35;21.76;99111.00;5032099;28;807;-65
2023/08/03 12:33:57;;;;;;;;;;;;;;;43.35;21.51;99120.47;5032729;28;846;-67
2023/08/03 12:36:24;;;;;;;;;;;;;;;43.47;21.36;99111.59;5032349;28;802;-65
2023/08/03 12:38:51;;;;;;;;;;;;;;;43.92;21.27;99107.16;5032185;28;881;-64
2023/08/03 12:41:19;;;;;;;;;;;;;;;43.92;21.33;99107.16;5031944;28;1233;-64
2023/08/03 12:43:47;;;;;;;;;;;;;;;44.00;21.33;99105.38;5032131;28;835;-66
2023/08/03 12:46:14;;;;;;;;;;;;;;;43.80;21.23;99107.34;5014193;28;1313;-68
2023/08/03 12:48:40;;;;;;;;;;;;;;;43.93;21.18;99111.56;5031812;28;1979;-65
2023/08/03 12:51:09;;;;;;;;;;;;;;;44.09;20.88;99105.78;5031774;28;1231;-67
2023/08/03 12:53:36;;;;;;;;;;;;;;;44.10;21.06;99104.34;5031937;28;830;-67
2023/08/03 12:56:04;;;;;;;;;;;;;;;44.13;20.80;99109.63;5031865;28;958;-65
2023/08/03 12:58:30;;;;;;;;;;;;;;;43.96;20.82;99098.63;5031852;28;810;-66
2023/08/03 13:00:59;;;;;;;;;;;;;;;43.80;20.93;99093.53;5031684;28;860;-68
2023/08/03 13:03:26;;;;;;;;;;;;;;;44.00;20.49;99096.63;5031757;28;999;-66
2023/08/03 13:05:54;;;;;;;;;;;;;;;44.06;20.66;99096.19;5031997;28;872;-66
2023/08/03 13:08:21;;;;;;;;;;;;;;;44.14;20.76;99090.72;5031711;28;1986;-66
2023/08/03 13:10:49;;;;;;;;;;;;;;;44.12;20.87;99090.63;5031750;28;874;-65
2023/08/03 13:13:18;;;;;;;;;;;;;;;43.87;21.04;99100.38;5031849;28;939;-67
2023/08/03 13:15:46;;;;;;;;;;;;;;;43.50;21.15;99098.63;5031788;28;869;-66
2023/08/03 13:18:14;;;;;;;;;;;;;;;43.23;21.62;99093.66;5031689;28;886;-66
2023/08/03 13:20:41;;;;;;;;;;;;;;;42.69;21.62;99104.78;5031628;28;885;-67
2023/08/03 13:23:08;;;;;;;;;;;;;;;42.25;22.52;99103.94;5031608;28;881;-66
2023/08/03 13:25:36;;;;;;;;;;;;;;;42.01;22.95;99100.47;5031649;28;830;-68
2023/08/03 13:28:03;;;;;;;;;;;;;;;41.95;22.36;99103.78;5031499;28;874;-65
2023/08/03 13:30:29;;;;;;;;;;;;;;;42.06;22.94;99108.00;5031726;28;1987;-65
2023/08/03 13:32:56;;;;;;;;;;;;;;;41.85;23.20;99102.47;5031539;28;822;-68
2023/08/03 13:35:23;;;;;;;;;;;;;;;41.66;22.68;99101.47;5031634;28;877;-66
2023/08/03 13:37:51;;;;;;;;;;;;;;;41.57;23.04;99102.38;5031432;28;932;-65